IDPK1: Verdigris River, Independence

                                SHEF ID:       IDPK1     VERDIGRIS R AT INDEPENDENCE, KS
STATION TYPE:
Regulating: Stage = 30.00, Flow = 23488

PRECIP STAGE RIV-FLOW BAT-LOAD
in ft cfs volt
Ccp-Rev Ccp-Rev Ccp-Rev Ccp-Rev
(America/Chicago)
06/16 00:00 0.00 8.05 2669 12.13
06/16 01:00 0.00 7.85 2541 12.13
06/16 02:00 0.00 7.68 2434 12.11
06/16 03:00 0.00 7.53 2342 12.10
06/16 04:00 0.00 7.39 2257 12.08
06/16 05:00 0.00 7.27 2186 12.07
06/16 06:00 0.00 7.17 2127 12.07
06/16 07:00 0.00 7.09 2080 12.07
06/16 08:00 0.00 7.05 2057 12.08
06/16 09:00 0.00 7.06 2063 12.11
06/16 10:00 0.00 7.13 2103 12.14
06/16 11:00 0.00 7.28 2191 12.14
06/16 12:00 0.00 7.49 2317 12.18
06/16 13:00 0.00 7.76 2484 12.19
06/16 14:00 0.00 8.07 2682 12.17
06/16 15:00 0.00 8.38 2887 12.17
06/16 16:00 0.00 8.69 3099 12.17
06/16 17:00 0.00 8.99 3310 12.17
06/16 18:00 0.00 9.28 3520 12.17
06/16 19:00 0.02 9.56 3729 12.17
06/16 20:00 0.26 9.87 3966 12.16
06/16 21:00 0.00 10.08 4099 12.17
06/16 22:00 0.00 10.26 4205 12.11
06/16 23:00 0.00 10.40 4288 12.11
Data processed at Mon 22Jun2026 03:05 GMT

NOTICE: If you are parsing this page

Please convert to using our Data API. Starting early 2026 we will be migrating to: https://water.usace.army.mil with modern pages rendered in JavaScript. When this migration completes you will no longer be able to scrape this page! CWMSDataAPI (CDA)

Timeseries IDs (TSIDs)

TSIDs used from left to right in the data table
INDP.Precip-Inc.Total.1Hour.1Hour.Ccp-Rev
INDP.Stage.Inst.1Hour.0.Ccp-Rev
INDP.Flow.Inst.1Hour.0.Ccp-Rev
INDP.Volt-Battery Load.Inst.1Hour.0.Ccp-Rev

                            

All information presented herein is the property of the government of the United States of America and may be revised or deleted at any time without prior notice. Dissemination of this information without the expressed written consent of the Public Affairs Office, Tulsa District U.S. Army Corps of Engineers is strictly prohibited. These data are gathered electronically and, as presented, have NOT undergone any form of quality control. These data are NOT guaranteed to be valid or correct.